createdAt,value
2017-05-11T00:00:08.574Z,92.81
2017-05-11T00:01:21.355Z,93.58
2017-05-11T00:02:34.141Z,93.48
2017-05-11T00:03:46.446Z,93.38
2017-05-11T00:04:59.430Z,93.96
2017-05-11T00:06:11.764Z,94.25
2017-05-11T00:07:24.547Z,93.77
2017-05-11T00:08:37.327Z,94.06
2017-05-11T00:09:50.405Z,93.91
2017-05-11T00:11:03.186Z,94.06
2017-05-11T00:12:15.966Z,93.91
2017-05-11T00:13:28.747Z,94.68
2017-05-11T00:14:41.525Z,94.54
2017-05-11T00:15:54.504Z,94.4
2017-05-11T00:17:07.285Z,95.17
2017-05-11T00:18:20.065Z,94.49
2017-05-11T00:19:32.846Z,94.73
2017-05-11T00:20:45.875Z,94.21
2017-05-11T00:21:58.190Z,93.96
2017-05-11T00:23:10.969Z,93.96
2017-05-11T00:24:23.752Z,93.82
2017-05-11T00:25:36.534Z,93.96
2017-05-11T00:26:49.470Z,94.4
2017-05-11T00:28:01.769Z,93.44
2017-05-11T00:29:14.554Z,93.29
2017-05-11T00:30:26.854Z,93.19
2017-05-11T00:31:39.834Z,93.19
2017-05-11T00:32:52.613Z,93.38
2017-05-11T00:34:05.389Z,93.29
2017-05-11T00:35:18.176Z,93.38
2017-05-11T00:36:30.960Z,93.1
2017-05-11T00:37:43.752Z,93.38
2017-05-11T00:38:56.054Z,93.38
2017-05-11T00:40:08.846Z,93.58
2017-05-11T00:41:21.627Z,93.38
2017-05-11T00:42:34.647Z,94.35
2017-05-11T00:43:47.478Z,93.48
2017-05-11T00:45:00.256Z,94.35
2017-05-11T00:46:12.553Z,94.35
2017-05-11T00:47:25.334Z,94.15
2017-05-11T00:48:38.118Z,94.25
2017-05-11T00:49:50.900Z,94.25
2017-05-11T00:51:03.687Z,93.77
2017-05-11T00:52:16.467Z,93.38
2017-05-11T00:53:29.460Z,93.29
2017-05-11T00:54:42.240Z,93.19
2017-05-11T00:55:55.022Z,93.29
2017-05-11T00:57:07.810Z,93.19
2017-05-11T00:58:20.122Z,93.38
2017-05-11T00:59:32.909Z,93.1
2017-05-11T01:00:45.690Z,94.06
2017-05-11T01:01:58.473Z,94.15
2017-05-11T01:03:11.253Z,93.96
2017-05-11T01:04:24.049Z,93.96
2017-05-11T01:05:36.834Z,94.15
2017-05-11T01:06:49.618Z,94.06
2017-05-11T01:08:02.402Z,94.06
2017-05-11T01:09:14.702Z,94.45
2017-05-11T01:10:26.999Z,94.15
2017-05-11T01:11:39.782Z,93.96
2017-05-11T01:12:52.565Z,94.45
2017-05-11T01:14:05.384Z,93.87
2017-05-11T01:15:17.686Z,93.87
2017-05-11T01:16:30.479Z,94.06
2017-05-11T01:17:43.269Z,93.87
2017-05-11T01:18:56.048Z,94.45
2017-05-11T01:20:08.350Z,94.4
2017-05-11T01:21:21.333Z,94.54
2017-05-11T01:22:34.116Z,94.64
2017-05-11T01:23:46.907Z,94.15
2017-05-11T01:24:59.692Z,94.45
2017-05-11T01:26:12.481Z,94.98
2017-05-11T01:27:25.310Z,94.88
2017-05-11T01:28:38.094Z,94.92
2017-05-11T01:29:50.880Z,95.75
2017-05-11T01:31:03.185Z,95.45
2017-05-11T01:32:15.483Z,95.75
2017-05-11T01:33:28.269Z,95.36
2017-05-11T01:34:41.051Z,95.55
2017-05-11T01:35:53.835Z,95.75
2017-05-11T01:37:06.330Z,95.75
2017-05-11T01:38:19.115Z,95.55
2017-05-11T01:39:31.898Z,95.79
2017-05-11T01:40:44.235Z,95.94
2017-05-11T01:41:57.016Z,95.89
2017-05-11T01:43:09.617Z,95.79
2017-05-11T01:44:22.399Z,95.6
2017-05-11T01:45:34.701Z,95.79
2017-05-11T01:46:47.480Z,95.6
2017-05-11T01:48:00.263Z,95.36
2017-05-11T01:49:12.079Z,95.45
2017-05-11T01:50:24.381Z,95.45
2017-05-11T01:51:37.162Z,95.17
2017-05-11T01:52:49.955Z,95.55
2017-05-11T01:54:02.958Z,95.55
2017-05-11T01:55:15.259Z,96.13
2017-05-11T01:56:28.044Z,96.7
2017-05-11T01:57:40.826Z,97.04
2017-05-11T01:58:53.618Z,96.85
2017-05-11T02:00:06.400Z,97.52
2017-05-11T02:01:19.190Z,97.81
2017-05-11T02:02:31.496Z,98.29
2017-05-11T02:03:44.277Z,98.29
2017-05-11T02:04:57.060Z,98.29
2017-05-11T02:06:09.360Z,98.19
2017-05-11T02:07:22.147Z,98.19
2017-05-11T02:08:34.934Z,98.1
2017-05-11T02:09:48.017Z,98.39
2017-05-11T02:11:00.801Z,98.77
2017-05-11T02:12:13.099Z,98.68
2017-05-11T02:13:25.395Z,98.68
2017-05-11T02:14:38.195Z,98.1
2017-05-11T02:15:51.178Z,98.19
2017-05-11T02:17:03.961Z,98.96
2017-05-11T02:18:16.742Z,98.86
2017-05-11T02:19:29.520Z,98.39
2017-05-11T02:20:42.543Z,98.86
2017-05-11T02:21:55.329Z,98.86
2017-05-11T02:23:08.108Z,98.68
2017-05-11T02:24:20.939Z,99.06
2017-05-11T02:25:33.723Z,99.25
2017-05-11T02:26:46.025Z,99.35
2017-05-11T02:27:57.841Z,99.06
2017-05-11T02:29:10.629Z,99.35
2017-05-11T02:30:23.407Z,98.86
2017-05-11T02:31:36.394Z,98.96
2017-05-11T02:32:49.174Z,98.86
2017-05-11T02:34:01.954Z,99.06
2017-05-11T02:35:14.733Z,99.25
2017-05-11T02:36:27.513Z,99.44
2017-05-11T02:37:40.299Z,98.96
2017-05-11T02:38:53.081Z,99.06
2017-05-11T02:40:05.378Z,98.77
2017-05-11T02:41:18.158Z,98.96
2017-05-11T02:42:31.141Z,98.86
2017-05-11T02:43:43.925Z,98.96
2017-05-11T02:44:56.706Z,98.86
2017-05-11T02:46:08.521Z,99.92
2017-05-11T02:47:20.816Z,99.1
2017-05-11T02:48:33.115Z,99.73
2017-05-11T02:49:45.899Z,99.68
2017-05-11T02:50:58.688Z,99.73
2017-05-11T02:52:10.518Z,99.06
2017-05-11T02:53:23.501Z,99.01
2017-05-11T02:54:36.283Z,99.78
2017-05-11T02:55:49.067Z,99.92
2017-05-11T02:57:01.367Z,99.97
2017-05-11T02:58:14.153Z,99.49
2017-05-11T02:59:26.938Z,99.68
2017-05-11T03:00:39.720Z,99.87
2017-05-11T03:01:52.502Z,99.68
2017-05-11T03:03:05.280Z,99.87
2017-05-11T03:04:18.070Z,99.92
2017-05-11T03:05:29.887Z,99.99
2017-05-11T03:06:42.668Z,99.99
2017-05-11T03:07:55.450Z,99.99
2017-05-11T03:09:07.756Z,99.99
2017-05-11T03:10:20.551Z,99.99
2017-05-11T03:11:33.339Z,99.99
2017-05-11T03:12:46.120Z,99.99
2017-05-11T03:13:58.901Z,99.99
2017-05-11T03:15:11.204Z,99.99
2017-05-11T03:16:23.989Z,99.99
2017-05-11T03:17:36.777Z,99.99
2017-05-11T03:18:49.563Z,99.99
2017-05-11T03:20:02.348Z,99.99
2017-05-11T03:21:14.851Z,99.99
2017-05-11T03:22:27.634Z,99.99
2017-05-11T03:23:40.419Z,99.99
2017-05-11T03:24:53.209Z,99.99
2017-05-11T03:26:06.000Z,99.99
2017-05-11T03:27:18.307Z,99.99
2017-05-11T03:28:31.091Z,99.99
2017-05-11T03:29:43.883Z,99.99
2017-05-11T03:30:56.185Z,99.99
2017-05-11T03:32:08.487Z,99.99
2017-05-11T03:33:21.272Z,99.99
2017-05-11T03:34:34.061Z,99.99
2017-05-11T03:35:46.403Z,99.99
2017-05-11T03:36:59.186Z,99.99
2017-05-11T03:38:11.970Z,99.99
2017-05-11T03:39:24.759Z,99.99
2017-05-11T03:40:37.555Z,99.99
2017-05-11T03:41:50.338Z,99.99
2017-05-11T03:43:02.840Z,99.99
2017-05-11T03:44:15.652Z,99.99
2017-05-11T03:45:28.432Z,99.99
2017-05-11T03:46:41.227Z,99.99
2017-05-11T03:47:54.008Z,99.99
2017-05-11T03:49:06.792Z,99.44
2017-05-11T03:50:19.572Z,99.63
2017-05-11T03:51:32.352Z,99.63
2017-05-11T03:52:44.647Z,99.99
2017-05-11T03:53:57.444Z,99.73
2017-05-11T03:55:10.253Z,99.99
2017-05-11T03:56:23.035Z,99.99
2017-05-11T03:57:35.813Z,99.99
2017-05-11T03:58:48.593Z,99.99
2017-05-11T04:00:01.374Z,99.99
2017-05-11T04:01:14.155Z,99.99
2017-05-11T04:02:26.938Z,99.92
2017-05-11T04:03:39.726Z,99.83
2017-05-11T04:04:52.510Z,99.83
2017-05-11T04:06:05.293Z,99.63
2017-05-11T04:07:18.076Z,99.54
2017-05-11T04:08:30.374Z,99.92
2017-05-11T04:09:43.357Z,99.44
2017-05-11T04:10:56.144Z,99.44
2017-05-11T04:12:08.443Z,99.83
2017-05-11T04:13:21.221Z,99.63
2017-05-11T04:14:33.999Z,99.44
2017-05-11T04:15:46.775Z,99.63
2017-05-11T04:16:59.559Z,99.63
2017-05-11T04:18:12.339Z,99.99
2017-05-11T04:19:25.118Z,99.06
2017-05-11T04:20:37.899Z,99.73
2017-05-11T04:21:50.680Z,99.15
2017-05-11T04:23:03.462Z,99.54
2017-05-11T04:24:16.248Z,98.68
2017-05-11T04:25:29.038Z,99.35
2017-05-11T04:26:41.335Z,99.44
2017-05-11T04:27:54.116Z,98.68
2017-05-11T04:29:05.931Z,98.96
2017-05-11T04:30:18.712Z,99.06
2017-05-11T04:31:31.792Z,99.4
2017-05-11T04:32:44.570Z,98.86
2017-05-11T04:33:57.354Z,99.15
2017-05-11T04:35:09.654Z,99.44
2017-05-11T04:36:22.470Z,99.44
2017-05-11T04:37:35.251Z,99.06
2017-05-11T04:38:48.033Z,98.91
2017-05-11T04:40:00.811Z,99.15
2017-05-11T04:41:13.595Z,99.44
2017-05-11T04:42:26.680Z,99.44
2017-05-11T04:43:39.463Z,99.3
2017-05-11T04:44:51.762Z,99.3
2017-05-11T04:46:04.544Z,99.11
2017-05-11T04:47:17.325Z,99.25
2017-05-11T04:48:29.621Z,99.3
2017-05-11T04:49:41.926Z,99.78
2017-05-11T04:50:54.702Z,99.98
2017-05-11T04:52:07.483Z,99.68
2017-05-11T04:53:18.836Z,99.4
2017-05-11T04:54:31.617Z,99.78
2017-05-11T04:55:44.402Z,99.99
2017-05-11T04:56:57.188Z,99.99
2017-05-11T04:58:09.490Z,99.99
2017-05-11T04:59:21.788Z,99.98
2017-05-11T05:00:34.580Z,99.99
2017-05-11T05:01:47.364Z,99.99
2017-05-11T05:03:00.143Z,99.99
2017-05-11T05:04:12.929Z,99.99
2017-05-11T05:05:25.709Z,99.92
2017-05-11T05:06:38.490Z,99.49
2017-05-11T05:07:51.277Z,99.88
2017-05-11T05:09:03.098Z,99.78
2017-05-11T05:10:16.080Z,99.49
2017-05-11T05:11:28.902Z,99.68
2017-05-11T05:12:41.681Z,99.78
2017-05-11T05:13:54.460Z,99.63
2017-05-11T05:15:07.240Z,99.73
2017-05-11T05:16:20.056Z,99.99
2017-05-11T05:17:31.873Z,99.99
2017-05-11T05:18:44.661Z,99.99
2017-05-11T05:19:57.452Z,99.88
2017-05-11T05:21:10.075Z,99.98
2017-05-11T05:22:22.858Z,99.78
2017-05-11T05:23:35.159Z,99.99
2017-05-11T05:24:47.457Z,99.78
2017-05-11T05:26:00.004Z,99.88
2017-05-11T05:27:12.798Z,99.78
2017-05-11T05:28:25.580Z,99.88
2017-05-11T05:29:37.881Z,99.83
2017-05-11T05:30:50.190Z,99.73
2017-05-11T05:32:03.280Z,99.78
2017-05-11T05:33:15.585Z,99.98
2017-05-11T05:34:28.368Z,99.99
2017-05-11T05:35:41.155Z,99.99
2017-05-11T05:36:53.464Z,99.99
2017-05-11T05:38:05.764Z,99.99
2017-05-11T05:39:17.583Z,99.99
2017-05-11T05:40:30.364Z,99.99
2017-05-11T05:41:43.151Z,99.99
2017-05-11T05:42:55.282Z,99.99
2017-05-11T05:44:08.065Z,99.99
2017-05-11T05:45:20.371Z,99.99
2017-05-11T05:46:33.160Z,99.99
2017-05-11T05:47:46.144Z,99.99
2017-05-11T05:48:58.935Z,99.99
2017-05-11T05:50:11.235Z,99.99
2017-05-11T05:51:23.547Z,99.99
2017-05-11T05:52:36.331Z,99.99
2017-05-11T05:53:49.114Z,99.99
2017-05-11T05:55:01.896Z,99.99
2017-05-11T05:56:13.242Z,99.99
2017-05-11T05:57:26.023Z,99.99
2017-05-11T05:58:38.812Z,99.99
2017-05-11T05:59:51.591Z,99.99
2017-05-11T06:01:04.377Z,99.99
2017-05-11T06:02:16.205Z,99.99
2017-05-11T06:03:28.030Z,99.99
2017-05-11T06:04:40.820Z,99.99
2017-05-11T06:05:53.599Z,99.99
2017-05-11T06:07:05.907Z,99.99
2017-05-11T06:08:18.210Z,99.99
2017-05-11T06:09:30.997Z,99.99
2017-05-11T06:10:43.306Z,99.99
2017-05-11T06:11:56.129Z,99.99
2017-05-11T06:13:08.930Z,99.99
2017-05-11T06:14:21.237Z,99.99
2017-05-11T06:15:34.322Z,99.99
2017-05-11T06:16:47.107Z,99.99
2017-05-11T06:17:59.899Z,99.99
2017-05-11T06:19:12.213Z,99.99
2017-05-11T06:20:24.997Z,99.99
2017-05-11T06:21:37.783Z,99.99
2017-05-11T06:22:50.570Z,99.99
2017-05-11T06:24:03.358Z,99.99
2017-05-11T06:25:16.140Z,99.99
2017-05-11T06:26:29.221Z,99.99
2017-05-11T06:27:42.007Z,99.99
2017-05-11T06:28:54.833Z,99.99
2017-05-11T06:30:06.649Z,99.99
2017-05-11T06:31:19.435Z,99.99
2017-05-11T06:32:32.223Z,99.99
2017-05-11T06:33:45.021Z,99.99
2017-05-11T06:34:57.812Z,99.99
2017-05-11T06:36:10.127Z,99.99
2017-05-11T06:37:22.914Z,99.99
2017-05-11T06:38:35.229Z,99.99
2017-05-11T06:39:47.528Z,99.99
2017-05-11T06:41:00.308Z,99.99
2017-05-11T06:42:12.327Z,99.99
2017-05-11T06:43:24.630Z,99.99
2017-05-11T06:44:37.418Z,99.99
2017-05-11T06:45:50.205Z,99.99
2017-05-11T06:47:02.989Z,99.99
2017-05-11T06:48:16.076Z,99.99
2017-05-11T06:49:28.867Z,99.99
2017-05-11T06:50:41.652Z,99.99
2017-05-11T06:51:53.947Z,99.99
2017-05-11T06:53:06.731Z,99.99
2017-05-11T06:54:19.534Z,99.99
2017-05-11T06:55:32.316Z,99.99
2017-05-11T06:56:45.098Z,99.99
2017-05-11T06:57:57.882Z,99.99
2017-05-11T06:59:10.986Z,99.99
2017-05-11T07:00:23.293Z,99.99
2017-05-11T07:01:36.075Z,99.99
2017-05-11T07:02:48.856Z,99.99
2017-05-11T07:04:01.660Z,99.99
2017-05-11T07:05:14.447Z,99.99
2017-05-11T07:06:26.276Z,99.99
2017-05-11T07:07:39.056Z,99.99
2017-05-11T07:08:51.847Z,99.99
2017-05-11T07:10:04.354Z,99.99
2017-05-11T07:11:17.136Z,99.99
2017-05-11T07:12:29.434Z,99.99
2017-05-11T07:13:42.214Z,99.99
2017-05-11T07:14:55.209Z,99.99
2017-05-11T07:16:07.518Z,99.99
2017-05-11T07:17:20.305Z,99.99
2017-05-11T07:18:33.099Z,99.99
2017-05-11T07:19:45.931Z,99.99
2017-05-11T07:20:58.539Z,99.99
2017-05-11T07:22:11.330Z,99.99
2017-05-11T07:23:24.125Z,99.99
2017-05-11T07:24:36.920Z,99.99
2017-05-11T07:25:49.704Z,99.99
2017-05-11T07:27:02.051Z,99.99
2017-05-11T07:28:14.353Z,99.99
2017-05-11T07:29:26.653Z,99.99
2017-05-11T07:30:39.449Z,99.99
2017-05-11T07:31:52.541Z,99.99
2017-05-11T07:33:05.319Z,99.99
2017-05-11T07:34:18.103Z,99.99
2017-05-11T07:35:30.886Z,99.99
2017-05-11T07:36:43.668Z,99.99
2017-05-11T07:37:56.447Z,99.99
2017-05-11T07:39:09.235Z,99.99
2017-05-11T07:40:22.052Z,99.99
2017-05-11T07:41:34.833Z,99.99
2017-05-11T07:42:47.911Z,99.99
2017-05-11T07:44:00.694Z,99.99
2017-05-11T07:45:12.991Z,99.99
2017-05-11T07:46:25.769Z,99.99
2017-05-11T07:47:38.554Z,99.99
2017-05-11T07:48:51.333Z,99.99
2017-05-11T07:50:03.631Z,99.99
2017-05-11T07:51:15.932Z,99.99
2017-05-11T07:52:28.234Z,99.99
2017-05-11T07:53:40.353Z,99.99
2017-05-11T07:54:53.129Z,99.99
2017-05-11T07:56:05.429Z,99.99
2017-05-11T07:57:17.758Z,99.99
2017-05-11T07:58:30.541Z,99.99
2017-05-11T07:59:42.835Z,99.99
2017-05-11T08:00:55.135Z,99.99
2017-05-11T08:02:07.444Z,99.99
2017-05-11T08:03:19.743Z,99.99
2017-05-11T08:04:32.824Z,99.99
2017-05-11T08:05:45.608Z,99.99
2017-05-11T08:06:57.917Z,99.99
2017-05-11T08:08:10.219Z,99.99
2017-05-11T08:09:22.523Z,99.99
2017-05-11T08:10:35.312Z,99.99
2017-05-11T08:11:48.095Z,99.99
2017-05-11T08:13:00.879Z,99.99
2017-05-11T08:14:13.663Z,99.99
2017-05-11T08:15:25.781Z,99.99
2017-05-11T08:16:38.564Z,99.99
2017-05-11T08:17:50.870Z,99.99
2017-05-11T08:19:03.657Z,99.99
2017-05-11T08:20:16.441Z,99.99
2017-05-11T08:21:29.230Z,99.99
2017-05-11T08:22:42.032Z,99.99
2017-05-11T08:23:54.336Z,99.99
2017-05-11T08:25:07.121Z,99.99
2017-05-11T08:26:19.725Z,99.99
2017-05-11T08:27:32.031Z,99.99
2017-05-11T08:28:44.809Z,99.99
2017-05-11T08:29:57.108Z,99.99
2017-05-11T08:31:10.204Z,99.99
2017-05-11T08:32:22.513Z,99.99
2017-05-11T08:33:35.302Z,99.99
2017-05-11T08:34:48.081Z,99.99
2017-05-11T08:36:00.384Z,99.99
2017-05-11T08:37:12.690Z,99.99
2017-05-11T08:38:25.482Z,99.99
2017-05-11T08:39:38.269Z,99.99
2017-05-11T08:40:51.049Z,99.99
2017-05-11T08:42:04.133Z,99.99
2017-05-11T08:43:16.460Z,99.99
2017-05-11T08:44:29.244Z,99.99
2017-05-11T08:45:42.026Z,99.99
2017-05-11T08:46:53.845Z,99.99
2017-05-11T08:48:06.836Z,99.99
2017-05-11T08:49:19.139Z,99.99
2017-05-11T08:50:31.921Z,99.99
2017-05-11T08:51:44.749Z,99.99
2017-05-11T08:52:57.540Z,99.99
2017-05-11T08:54:10.336Z,99.99
2017-05-11T08:55:22.155Z,99.99
2017-05-11T08:56:34.466Z,99.99
2017-05-11T08:57:47.259Z,99.99
2017-05-11T08:59:00.245Z,99.99
2017-05-11T09:00:13.031Z,99.99
2017-05-11T09:01:25.333Z,99.99
2017-05-11T09:02:38.126Z,99.99
2017-05-11T09:03:50.433Z,99.99
2017-05-11T09:05:03.214Z,99.99
2017-05-11T09:06:15.566Z,99.99
2017-05-11T09:07:28.345Z,99.99
2017-05-11T09:08:41.131Z,99.99
2017-05-11T09:09:53.435Z,99.99
2017-05-11T09:11:06.214Z,99.99
2017-05-11T09:12:18.514Z,99.99
2017-05-11T09:13:31.337Z,99.99
2017-05-11T09:14:44.318Z,99.99
2017-05-11T09:15:57.139Z,99.99
2017-05-11T09:17:09.922Z,99.99
2017-05-11T09:18:22.218Z,99.99
2017-05-11T09:19:35.033Z,99.99
2017-05-11T09:20:47.823Z,99.99
2017-05-11T09:21:59.658Z,99.99
2017-05-11T09:23:12.440Z,99.99
2017-05-11T09:24:25.224Z,99.99
2017-05-11T09:25:38.309Z,99.99
2017-05-11T09:26:51.089Z,99.99
2017-05-11T09:28:03.872Z,99.99
2017-05-11T09:29:16.657Z,99.99
2017-05-11T09:30:29.440Z,99.99
2017-05-11T09:31:42.236Z,99.99
2017-05-11T09:32:54.536Z,99.99
2017-05-11T09:34:07.323Z,99.99
2017-05-11T09:35:18.661Z,99.99
2017-05-11T09:36:31.442Z,99.99
2017-05-11T09:37:44.223Z,99.99
2017-05-11T09:38:57.006Z,99.99
2017-05-11T09:40:09.838Z,99.99
2017-05-11T09:41:21.661Z,99.99
2017-05-11T09:42:34.651Z,99.99
2017-05-11T09:43:47.433Z,99.99
2017-05-11T09:45:00.218Z,99.99
2017-05-11T09:46:12.519Z,99.99
2017-05-11T09:47:25.297Z,99.99
2017-05-11T09:48:37.597Z,99.99
2017-05-11T09:49:50.419Z,99.99
2017-05-11T09:51:02.724Z,99.99
2017-05-11T09:52:15.504Z,99.99
2017-05-11T09:53:28.282Z,99.99
2017-05-11T09:54:40.579Z,99.99
2017-05-11T09:55:53.357Z,99.99
2017-05-11T09:57:06.140Z,99.99
2017-05-11T09:58:17.953Z,99.99
2017-05-11T09:59:30.737Z,99.99
2017-05-11T10:00:43.520Z,99.99
2017-05-11T10:01:56.303Z,99.99
2017-05-11T10:03:08.606Z,99.99
2017-05-11T10:04:21.105Z,99.99
2017-05-11T10:05:33.884Z,99.99
2017-05-11T10:06:46.660Z,99.99
2017-05-11T10:07:59.441Z,99.99
2017-05-11T10:09:12.222Z,99.99
2017-05-11T10:10:24.527Z,99.99
2017-05-11T10:11:37.317Z,99.99
2017-05-11T10:12:49.621Z,99.99
2017-05-11T10:14:02.399Z,99.99
2017-05-11T10:15:15.190Z,99.99
2017-05-11T10:16:27.489Z,99.99
2017-05-11T10:17:39.785Z,99.99
2017-05-11T10:18:52.567Z,99.99
2017-05-11T10:20:05.545Z,99.99
2017-05-11T10:21:17.843Z,99.99
2017-05-11T10:22:30.628Z,99.99
2017-05-11T10:23:43.417Z,99.99
2017-05-11T10:24:56.198Z,99.99
2017-05-11T10:26:08.977Z,99.99
2017-05-11T10:27:20.799Z,99.99
2017-05-11T10:28:33.579Z,99.99
2017-05-11T10:29:45.875Z,99.99
2017-05-11T10:30:58.175Z,99.99
2017-05-11T10:32:10.476Z,99.99
2017-05-11T10:33:23.258Z,99.99
2017-05-11T10:34:36.038Z,99.99
2017-05-11T10:35:48.825Z,99.99
2017-05-11T10:37:01.601Z,99.99
2017-05-11T10:38:13.897Z,99.99
2017-05-11T10:39:25.715Z,99.99
2017-05-11T10:40:38.493Z,99.99
2017-05-11T10:41:50.789Z,99.99
2017-05-11T10:43:03.566Z,99.99
2017-05-11T10:44:16.345Z,99.99
2017-05-11T10:45:28.644Z,99.99
2017-05-11T10:46:41.427Z,99.99
2017-05-11T10:47:53.764Z,99.99
2017-05-11T10:49:06.547Z,99.99
2017-05-11T10:50:19.328Z,99.99
2017-05-11T10:51:32.108Z,99.99
2017-05-11T10:52:44.899Z,99.99
2017-05-11T10:53:57.682Z,99.99
2017-05-11T10:55:10.459Z,99.99
2017-05-11T10:56:23.236Z,99.99
2017-05-11T10:57:35.536Z,99.99
2017-05-11T10:58:47.832Z,99.99
2017-05-11T11:00:00.129Z,99.99
2017-05-11T11:01:12.433Z,99.99
2017-05-11T11:02:24.730Z,99.99
2017-05-11T11:03:37.515Z,99.99
2017-05-11T11:04:50.295Z,99.99
2017-05-11T11:06:03.082Z,99.99
2017-05-11T11:07:15.859Z,99.99
2017-05-11T11:08:28.668Z,99.99
2017-05-11T11:09:41.447Z,99.99
2017-05-11T11:10:53.742Z,99.99
2017-05-11T11:12:06.527Z,99.99
2017-05-11T11:13:18.825Z,99.99
2017-05-11T11:14:31.619Z,99.99
2017-05-11T11:15:44.429Z,99.99
2017-05-11T11:16:56.724Z,99.99
2017-05-11T11:18:09.509Z,99.99
2017-05-11T11:19:21.325Z,99.99
2017-05-11T11:20:34.111Z,99.99
2017-05-11T11:21:46.412Z,99.54
2017-05-11T11:22:59.191Z,99.39
2017-05-11T11:24:11.493Z,99.73
2017-05-11T11:25:23.314Z,99.54
2017-05-11T11:26:36.094Z,99.54
2017-05-11T11:27:48.876Z,99.63
2017-05-11T11:29:01.171Z,98.86
2017-05-11T11:30:13.956Z,99.15
2017-05-11T11:31:26.742Z,98.29
2017-05-11T11:32:38.556Z,97.91
2017-05-11T11:33:50.383Z,96.8
2017-05-11T11:35:02.698Z,97.28
2017-05-11T11:36:14.997Z,97.09
2017-05-11T11:37:27.302Z,97.09
2017-05-11T11:38:40.084Z,97.19
2017-05-11T11:39:52.865Z,96.61
2017-05-11T11:41:05.656Z,96.7
2017-05-11T11:42:17.297Z,96.13
2017-05-11T11:43:30.095Z,96.32
2017-05-11T11:44:42.877Z,95.94
2017-05-11T11:45:55.656Z,95.84
2017-05-11T11:47:08.156Z,95.26
2017-05-11T11:48:20.942Z,94.69
2017-05-11T11:49:33.730Z,95.45
2017-05-11T11:50:46.517Z,95.26
2017-05-11T11:51:58.823Z,95.17
2017-05-11T11:53:11.611Z,95.07
2017-05-11T11:54:24.400Z,95.45
2017-05-11T11:55:37.188Z,95.94
2017-05-11T11:56:49.504Z,96.03
2017-05-11T11:58:02.337Z,94.78
2017-05-11T11:59:15.123Z,94.31
2017-05-11T12:00:26.947Z,94.59
2017-05-11T12:01:39.734Z,93.82
2017-05-11T12:02:52.515Z,93.82
2017-05-11T12:04:04.825Z,94.01
2017-05-11T12:05:17.611Z,94.21
2017-05-11T12:06:30.396Z,93.63
2017-05-11T12:07:43.186Z,94.26
2017-05-11T12:08:56.274Z,92.05
2017-05-11T12:10:09.056Z,91.47
2017-05-11T12:11:21.844Z,90.03
2017-05-11T12:12:34.155Z,90.6
2017-05-11T12:13:46.942Z,90.99
2017-05-11T12:14:59.737Z,90.17
2017-05-11T12:16:12.520Z,89.5
2017-05-11T12:17:25.301Z,89.88
2017-05-11T12:18:37.607Z,89.01
2017-05-11T12:19:50.594Z,89.21
2017-05-11T12:21:03.376Z,88.73
2017-05-11T12:22:16.169Z,88.82
2017-05-11T12:23:27.024Z,88.92
2017-05-11T12:24:39.326Z,89.01
2017-05-11T12:25:51.630Z,89.3
2017-05-11T12:27:04.407Z,89.59
2017-05-11T12:28:17.186Z,89.11
2017-05-11T12:29:29.972Z,89.59
2017-05-11T12:30:42.273Z,90.17
2017-05-11T12:31:55.059Z,89.83
2017-05-11T12:33:07.844Z,90.36
2017-05-11T12:34:20.143Z,90.07
2017-05-11T12:35:32.923Z,90.31
2017-05-11T12:36:45.705Z,90.7
2017-05-11T12:37:58.006Z,90.41
2017-05-11T12:39:10.799Z,90.41
2017-05-11T12:40:23.584Z,90.22
2017-05-11T12:41:36.373Z,90.41
2017-05-11T12:42:49.356Z,90.22
2017-05-11T12:44:02.144Z,90.31
2017-05-11T12:45:14.948Z,90.26
2017-05-11T12:46:27.752Z,90.6
2017-05-11T12:47:40.745Z,90.55
2017-05-11T12:48:53.532Z,89.4
2017-05-11T12:50:05.836Z,89.01
2017-05-11T12:51:18.622Z,89.11
2017-05-11T12:52:31.418Z,89.54
2017-05-11T12:53:44.222Z,89.36
2017-05-11T12:54:57.011Z,89.69
2017-05-11T12:56:09.320Z,89.64
2017-05-11T12:57:21.625Z,89.07
2017-05-11T12:58:34.407Z,89.3
2017-05-11T12:59:47.193Z,88.87
2017-05-11T13:00:59.981Z,89.26
2017-05-11T13:02:12.771Z,89.36
2017-05-11T13:03:25.566Z,89.5
2017-05-11T13:04:38.351Z,89.54
2017-05-11T13:05:51.132Z,89.54
2017-05-11T13:07:03.916Z,89.59
2017-05-11T13:08:16.696Z,89.59
2017-05-11T13:09:29.198Z,89.78
2017-05-11T13:10:41.990Z,88.73
2017-05-11T13:11:53.816Z,89.01
2017-05-11T13:13:06.617Z,89.59
2017-05-11T13:14:19.403Z,88.15
2017-05-11T13:15:32.190Z,87.29
2017-05-11T13:16:44.988Z,87.42
2017-05-11T13:17:57.293Z,87.04
2017-05-11T13:19:10.077Z,86.27
2017-05-11T13:20:22.375Z,86.75
2017-05-11T13:21:35.158Z,86.27
2017-05-11T13:22:47.949Z,85.88
2017-05-11T13:24:00.252Z,85.4
2017-05-11T13:25:12.553Z,85.88
2017-05-11T13:26:25.339Z,85.69
2017-05-11T13:27:38.121Z,85.4
2017-05-11T13:28:50.943Z,85.31
2017-05-11T13:30:03.737Z,85.31
2017-05-11T13:31:16.827Z,85.06
2017-05-11T13:32:29.659Z,85.06
2017-05-11T13:33:41.967Z,84.67
2017-05-11T13:34:54.266Z,84.19
2017-05-11T13:36:07.050Z,83.91
2017-05-11T13:37:19.830Z,84.1
2017-05-11T13:38:32.130Z,84.48
2017-05-11T13:39:44.918Z,84.1
2017-05-11T13:40:57.697Z,83.91
2017-05-11T13:42:10.018Z,84
2017-05-11T13:43:22.317Z,84.19
2017-05-11T13:44:35.097Z,83.72
2017-05-11T13:45:47.879Z,84.39
2017-05-11T13:47:00.662Z,84.63
2017-05-11T13:48:13.452Z,84.83
2017-05-11T13:49:26.245Z,84.73
2017-05-11T13:50:39.047Z,84.92
2017-05-11T13:51:52.359Z,85.69
2017-05-11T13:53:04.681Z,85.02
2017-05-11T13:54:17.005Z,85.06
2017-05-11T13:55:29.808Z,84.67
2017-05-11T13:56:42.121Z,84.1
2017-05-11T13:57:54.915Z,83.72
2017-05-11T13:59:07.234Z,81.63
2017-05-11T14:00:19.547Z,80.68
2017-05-11T14:01:32.347Z,80.33
2017-05-11T14:02:44.665Z,79.56
2017-05-11T14:03:56.972Z,79.85
2017-05-11T14:05:09.767Z,80.33
2017-05-11T14:06:22.608Z,80.33
2017-05-11T14:07:35.448Z,79.66
2017-05-11T14:08:48.239Z,78.5
2017-05-11T14:10:01.043Z,77.63
2017-05-11T14:11:13.361Z,78.59
2017-05-11T14:12:25.676Z,79.66
2017-05-11T14:13:38.488Z,79.27
2017-05-11T14:14:50.793Z,79.27
2017-05-11T14:16:03.581Z,79.21
2017-05-11T14:17:15.896Z,78.83
2017-05-11T14:18:28.222Z,78.25
2017-05-11T14:19:39.577Z,77.71
2017-05-11T14:20:53.021Z,74.82
2017-05-11T14:22:05.331Z,73.95
2017-05-11T14:23:16.673Z,73.99
2017-05-11T14:24:29.719Z,73.99
2017-05-11T14:25:41.549Z,73.99
2017-05-11T14:26:54.340Z,73.41
2017-05-11T14:28:07.142Z,72.34
2017-05-11T14:29:19.934Z,71.9
2017-05-11T14:30:32.125Z,70.94
2017-05-11T14:31:43.967Z,71.42
2017-05-11T14:32:55.792Z,71.8
2017-05-11T14:34:08.590Z,72.44
2017-05-11T14:35:20.908Z,72.34
2017-05-11T14:36:33.220Z,73.11
2017-05-11T14:37:46.014Z,73.79
2017-05-11T14:38:58.816Z,73.21
2017-05-11T14:40:11.154Z,74.08
2017-05-11T14:41:23.958Z,74.18
2017-05-11T14:42:36.293Z,73.11
2017-05-11T14:43:48.608Z,73.85
2017-05-11T14:45:01.399Z,74.33
2017-05-11T14:46:14.342Z,73.47
2017-05-11T14:47:26.646Z,74.05
2017-05-11T14:48:39.434Z,73.18
2017-05-11T14:49:52.218Z,72.99
2017-05-11T14:51:05.005Z,72.5
2017-05-11T14:52:17.313Z,72.31
2017-05-11T14:53:30.099Z,72.6
2017-05-11T14:54:42.883Z,72.6
2017-05-11T14:55:55.666Z,73.08
2017-05-11T14:57:08.751Z,73.18
2017-05-11T14:58:20.098Z,73.47
2017-05-11T14:59:32.880Z,73.37
2017-05-11T15:00:45.182Z,73.47
2017-05-11T15:01:57.969Z,74.24
2017-05-11T15:03:10.759Z,73.95
2017-05-11T15:04:23.073Z,74.2
2017-05-11T15:05:35.867Z,74.05
2017-05-11T15:06:48.178Z,73.47
2017-05-11T15:08:00.478Z,73.37
2017-05-11T15:09:13.273Z,72.89
2017-05-11T15:10:26.067Z,72.21
2017-05-11T15:11:38.370Z,73.95
2017-05-11T15:12:51.165Z,74.91
2017-05-11T15:14:04.297Z,74.24
2017-05-11T15:15:17.106Z,75.3
2017-05-11T15:16:29.901Z,75.3
2017-05-11T15:17:42.700Z,74.62
2017-05-11T15:18:55.499Z,75.55
2017-05-11T15:20:07.333Z,75.97
2017-05-11T15:21:19.661Z,76.45
2017-05-11T15:22:32.456Z,76.93
2017-05-11T15:23:45.245Z,76.8
2017-05-11T15:24:58.049Z,76.51
2017-05-11T15:26:10.359Z,77.19
2017-05-11T15:27:23.154Z,77.28
2017-05-11T15:28:35.956Z,77.58
2017-05-11T15:29:48.951Z,78.06
2017-05-11T15:31:01.746Z,78.34
2017-05-11T15:32:14.058Z,78.83
2017-05-11T15:33:26.873Z,79.36
2017-05-11T15:34:39.678Z,78.69
2017-05-11T15:35:52.476Z,78.15
2017-05-11T15:37:05.274Z,78.98